Time,TemperatureF,DewpointF,PressureIn,WindDirection,WindDirectionDegrees,WindSpeedMPH,WindSpeedGustMPH,Humidity,HourlyPrecipIn,Conditions,Clouds,dailyrainin,SoftwareType,DateUTC
2013-08-17 00:02:00,55.7,50.9,30.04,NNW,330,0.0,1.0,84,0.00,,,0.00,LWC V2.10 B1813,2013-08-17 08:02:00,
2013-08-17 00:07:00,55.6,51.2,30.04,NNW,330,0.0,1.0,85,0.00,,,0.00,LWC V2.10 B1813,2013-08-17 08:07:00,
2013-08-17 00:12:00,55.5,51.1,30.04,NNW,330,0.0,0.0,85,0.00,,,0.00,LWC V2.10 B1813,2013-08-17 08:12:00,
2013-08-17 00:17:00,55.3,50.9,30.04,NNW,336,3.0,3.0,85,0.00,,,0.00,LWC V2.10 B1813,2013-08-17 08:17:00,
2013-08-17 00:22:00,55.2,50.8,30.04,North,0,0.0,1.0,85,0.00,,,0.00,LWC V2.10 B1813,2013-08-17 08:22:00,
2013-08-17 00:27:00,54.9,50.5,30.04,NNW,336,0.0,0.0,85,0.00,,,0.00,LWC V2.10 B1813,2013-08-17 08:27:00,
2013-08-17 00:32:00,54.8,50.7,30.04,North,0,0.0,0.0,86,0.00,,,0.00,LWC V2.10 B1813,2013-08-17 08:32:00,
2013-08-17 00:37:00,54.6,50.5,30.04,NNW,336,0.0,0.0,86,0.00,,,0.00,LWC V2.10 B1813,2013-08-17 08:37:00,
2013-08-17 00:42:00,54.6,50.5,30.04,North,0,0.0,0.0,86,0.00,,,0.00,LWC V2.10 B1813,2013-08-17 08:42:00,
2013-08-17 00:47:00,54.4,50.3,30.05,NNW,336,0.0,1.0,86,0.00,,,0.00,LWC V2.10 B1813,2013-08-17 08:47:00,
2013-08-17 00:52:00,54.2,50.4,30.05,North,0,1.0,1.0,87,0.00,,,0.00,LWC V2.10 B1813,2013-08-17 08:52:00,
2013-08-17 00:57:00,54.0,50.2,30.04,NE,42,3.0,4.0,87,0.00,,,0.00,LWC V2.10 B1813,2013-08-17 08:57:00,
2013-08-17 01:02:00,53.9,50.4,30.04,NE,44,2.0,3.0,88,0.00,,,0.00,LWC V2.10 B1813,2013-08-17 09:02:00,
2013-08-17 01:07:00,53.8,50.3,30.04,NE,42,0.0,0.0,88,0.00,,,0.00,LWC V2.10 B1813,2013-08-17 09:07:00,
2013-08-17 01:12:00,53.8,50.3,30.04,NE,43,0.0,0.0,88,0.00,,,0.00,LWC V2.10 B1813,2013-08-17 09:12:00,
2013-08-17 01:17:00,53.8,50.3,30.04,NE,43,0.0,0.0,88,0.00,,,0.00,LWC V2.10 B1813,2013-08-17 09:17:00,
2013-08-17 01:22:00,53.7,50.2,30.04,NE,43,0.0,1.0,88,0.00,,,0.00,LWC V2.10 B1813,2013-08-17 09:22:00,
2013-08-17 01:27:00,53.5,50.0,30.04,NE,42,2.0,2.0,88,0.00,,,0.00,LWC V2.10 B1813,2013-08-17 09:27:00,
2013-08-17 01:32:00,53.3,50.1,30.04,NE,43,0.0,0.0,89,0.00,,,0.00,LWC V2.10 B1813,2013-08-17 09:32:00,
2013-08-17 01:37:00,53.2,50.0,30.04,NE,43,0.0,0.0,89,0.00,,,0.00,LWC V2.10 B1813,2013-08-17 09:37:00,
2013-08-17 01:42:00,53.1,49.9,30.04,NE,43,0.0,0.0,89,0.00,,,0.00,LWC V2.10 B1813,2013-08-17 09:42:00,
2013-08-17 01:47:00,53.1,49.9,30.05,NE,42,1.0,1.0,89,0.00,,,0.00,LWC V2.10 B1813,2013-08-17 09:47:00,
2013-08-17 01:52:00,53.1,49.9,30.04,ENE,71,0.0,1.0,89,0.00,,,0.00,LWC V2.10 B1813,2013-08-17 09:52:00,
2013-08-17 01:57:00,53.0,49.8,30.04,North,0,1.0,3.0,89,0.00,,,0.00,LWC V2.10 B1813,2013-08-17 09:57:00,
2013-08-17 02:02:00,53.0,50.1,30.04,NW,307,0.0,3.0,90,0.00,,,0.00,LWC V2.10 B1813,2013-08-17 10:02:00,
2013-08-17 02:07:00,52.9,49.7,30.04,North,0,0.0,0.0,89,0.00,,,0.00,LWC V2.10 B1813,2013-08-17 10:07:00,
2013-08-17 02:12:00,52.9,49.7,30.04,NW,308,0.0,0.0,89,0.00,,,0.00,LWC V2.10 B1813,2013-08-17 10:12:00,
2013-08-17 02:17:00,53.0,49.8,30.04,NW,309,0.0,1.0,89,0.00,,,0.00,LWC V2.10 B1813,2013-08-17 10:17:00,
2013-08-17 02:22:00,53.0,49.8,30.04,WNW,284,2.0,3.0,89,0.00,,,0.00,LWC V2.10 B1813,2013-08-17 10:22:00,
2013-08-17 02:27:00,53.0,49.8,30.04,SW,230,0.0,1.0,89,0.00,,,0.00,LWC V2.10 B1813,2013-08-17 10:27:00,
2013-08-17 02:32:00,52.8,49.6,30.04,SW,230,0.0,0.0,89,0.00,,,0.00,LWC V2.10 B1813,2013-08-17 10:32:00,
2013-08-17 02:37:00,52.7,49.5,30.04,SW,230,0.0,0.0,89,0.00,,,0.00,LWC V2.10 B1813,2013-08-17 10:37:00,
2013-08-17 02:42:00,52.7,49.5,30.04,SW,230,0.0,1.0,89,0.00,,,0.00,LWC V2.10 B1813,2013-08-17 10:42:00,
2013-08-17 02:47:00,52.7,49.8,30.04,West,277,0.0,4.0,90,0.00,,,0.00,LWC V2.10 B1813,2013-08-17 10:47:00,
2013-08-17 02:52:00,52.7,49.5,30.04,ESE,121,2.0,4.0,89,0.00,,,0.00,LWC V2.10 B1813,2013-08-17 10:52:00,
2013-08-17 02:57:00,52.6,49.5,30.04,East,101,2.0,5.0,89,0.00,,,0.00,LWC V2.10 B1813,2013-08-17 10:57:00,
2013-08-17 03:02:00,52.5,49.4,30.04,East,87,3.0,3.0,89,0.00,,,0.00,LWC V2.10 B1813,2013-08-17 11:02:00,
2013-08-17 03:07:00,52.3,49.5,30.04,East,80,2.0,3.0,90,0.00,,,0.00,LWC V2.10 B1813,2013-08-17 11:07:00,
2013-08-17 03:12:00,52.1,49.3,30.04,ENE,64,3.0,4.0,90,0.00,,,0.00,LWC V2.10 B1813,2013-08-17 11:12:00,
2013-08-17 03:17:00,51.9,49.1,30.03,ENE,75,3.0,3.0,90,0.00,,,0.00,LWC V2.10 B1813,2013-08-17 11:17:00,
2013-08-17 03:22:00,51.6,48.8,30.04,East,86,3.0,7.0,90,0.00,,,0.00,LWC V2.10 B1813,2013-08-17 11:22:00,
2013-08-17 03:27:00,51.4,48.9,30.04,ENE,68,4.0,5.0,91,0.00,,,0.00,LWC V2.10 B1813,2013-08-17 11:27:00,
2013-08-17 03:32:00,51.3,48.8,30.03,ENE,63,2.0,3.0,91,0.00,,,0.00,LWC V2.10 B1813,2013-08-17 11:32:00,
2013-08-17 03:37:00,51.3,48.8,30.03,NE,56,0.0,1.0,91,0.00,,,0.00,LWC V2.10 B1813,2013-08-17 11:37:00,
2013-08-17 03:42:00,51.2,48.7,30.03,ENE,57,0.0,1.0,91,0.00,,,0.00,LWC V2.10 B1813,2013-08-17 11:42:00,
2013-08-17 03:47:00,51.2,48.7,30.03,NE,46,0.0,2.0,91,0.00,,,0.00,LWC V2.10 B1813,2013-08-17 11:47:00,
2013-08-17 03:52:00,51.2,48.7,30.03,NE,45,1.0,1.0,91,0.00,,,0.00,LWC V2.10 B1813,2013-08-17 11:52:00,
2013-08-17 03:57:00,51.1,48.6,30.03,NE,47,0.0,0.0,91,0.00,,,0.00,LWC V2.10 B1813,2013-08-17 11:57:00,
2013-08-17 04:02:00,51.2,48.7,30.03,NE,46,0.0,1.0,91,0.00,,,0.00,LWC V2.10 B1813,2013-08-17 12:02:00,
2013-08-17 04:06:00,51.3,48.5,30.03,NE,45,0.0,0.0,90,0.00,,,0.00,LWC V2.10 B1813,2013-08-17 12:06:00,
2013-08-17 04:11:00,51.4,48.6,30.03,NE,46,0.0,1.0,90,0.00,,,0.00,LWC V2.10 B1813,2013-08-17 12:11:00,
2013-08-17 04:16:00,51.5,48.4,30.03,NE,48,0.0,2.0,89,0.00,,,0.00,LWC V2.10 B1813,2013-08-17 12:16:00,
2013-08-17 04:21:00,51.4,48.3,30.03,East,99,1.0,1.0,89,0.00,,,0.00,LWC V2.10 B1813,2013-08-17 12:21:00,
2013-08-17 04:26:00,51.3,48.2,30.03,East,99,0.0,0.0,89,0.00,,,0.00,LWC V2.10 B1813,2013-08-17 12:26:00,
2013-08-17 04:31:00,51.3,48.5,30.03,North,0,0.0,1.0,90,0.00,,,0.00,LWC V2.10 B1813,2013-08-17 12:31:00,
2013-08-17 04:36:00,51.2,48.4,30.03,North,0,0.0,1.0,90,0.00,,,0.00,LWC V2.10 B1813,2013-08-17 12:36:00,
2013-08-17 04:41:00,50.8,48.0,30.03,ESE,118,3.0,4.0,90,0.00,,,0.00,LWC V2.10 B1813,2013-08-17 12:41:00,
2013-08-17 04:46:00,50.7,48.2,30.03,ESE,109,0.0,3.0,91,0.00,,,0.00,LWC V2.10 B1813,2013-08-17 12:46:00,
2013-08-17 04:51:00,50.7,48.2,30.02,ESE,109,0.0,1.0,91,0.00,,,0.00,LWC V2.10 B1813,2013-08-17 12:51:00,
2013-08-17 04:56:00,50.7,48.2,30.02,ESE,109,0.0,0.0,91,0.00,,,0.00,LWC V2.10 B1813,2013-08-17 12:56:00,
2013-08-17 05:01:00,50.7,48.2,30.02,ESE,109,0.0,0.0,91,0.00,,,0.00,LWC V2.10 B1813,2013-08-17 13:01:00,
2013-08-17 05:06:00,50.6,48.1,30.02,ESE,109,0.0,2.0,91,0.00,,,0.00,LWC V2.10 B1813,2013-08-17 13:06:00,
2013-08-17 05:11:00,50.4,47.6,30.03,East,85,6.0,6.0,90,0.00,,,0.00,LWC V2.10 B1813,2013-08-17 13:11:00,
2013-08-17 05:16:00,50.4,47.9,30.02,ENE,67,1.0,2.0,91,0.00,,,0.00,LWC V2.10 B1813,2013-08-17 13:16:00,
2013-08-17 05:21:00,50.4,47.9,30.02,ENE,69,0.0,1.0,91,0.00,,,0.00,LWC V2.10 B1813,2013-08-17 13:21:00,
2013-08-17 05:26:00,50.4,47.9,30.02,ENE,67,0.0,0.0,91,0.00,,,0.00,LWC V2.10 B1813,2013-08-17 13:26:00,
2013-08-17 05:31:00,50.4,47.9,30.02,ENE,67,0.0,2.0,91,0.00,,,0.00,LWC V2.10 B1813,2013-08-17 13:31:00,
2013-08-17 05:36:00,50.3,47.8,30.02,ENE,68,2.0,2.0,91,0.00,,,0.00,LWC V2.10 B1813,2013-08-17 13:36:00,
2013-08-17 05:41:00,50.3,47.8,30.02,ENE,68,0.0,0.0,91,0.00,,,0.00,LWC V2.10 B1813,2013-08-17 13:41:00,
2013-08-17 05:46:00,50.2,47.4,30.02,ENE,68,0.0,0.0,90,0.00,,,0.00,LWC V2.10 B1813,2013-08-17 13:46:00,
2013-08-17 05:51:00,50.1,47.3,30.02,ENE,68,0.0,0.0,90,0.00,,,0.00,LWC V2.10 B1813,2013-08-17 13:51:00,
2013-08-17 05:56:00,50.2,47.4,30.02,ENE,68,0.0,0.0,90,0.00,,,0.00,LWC V2.10 B1813,2013-08-17 13:56:00,
2013-08-17 06:01:00,50.3,47.5,30.02,ENE,69,0.0,1.0,90,0.00,,,0.00,LWC V2.10 B1813,2013-08-17 14:01:00,
2013-08-17 06:06:00,50.4,47.6,30.02,ENE,68,0.0,0.0,90,0.00,,,0.00,LWC V2.10 B1813,2013-08-17 14:06:00,
2013-08-17 06:11:00,50.5,48.0,30.02,ENE,67,0.0,0.0,91,0.00,,,0.00,LWC V2.10 B1813,2013-08-17 14:11:00,
2013-08-17 06:16:00,50.6,47.8,30.02,ENE,67,0.0,0.0,90,0.00,,,0.00,LWC V2.10 B1813,2013-08-17 14:16:00,
2013-08-17 06:21:00,50.7,47.9,30.02,ENE,68,0.0,0.0,90,0.00,,,0.00,LWC V2.10 B1813,2013-08-17 14:21:00,
2013-08-17 06:26:00,50.8,48.0,30.02,NE,34,0.0,1.0,90,0.00,,,0.00,LWC V2.10 B1813,2013-08-17 14:26:00,
2013-08-17 06:31:00,51.0,48.2,30.03,NE,34,0.0,0.0,90,0.00,,,0.00,LWC V2.10 B1813,2013-08-17 14:31:00,
2013-08-17 06:36:00,51.2,48.4,30.02,NE,35,0.0,1.0,90,0.00,,,0.00,LWC V2.10 B1813,2013-08-17 14:36:00,
2013-08-17 06:41:00,51.3,48.2,30.02,NE,34,0.0,0.0,89,0.00,,,0.00,LWC V2.10 B1813,2013-08-17 14:41:00,
2013-08-17 06:46:00,51.6,48.8,30.02,NNE,24,0.0,1.0,90,0.00,,,0.00,LWC V2.10 B1813,2013-08-17 14:46:00,
2013-08-17 06:51:00,52.2,49.7,30.02,North,5,0.0,0.0,91,0.00,,,0.00,LWC V2.10 B1813,2013-08-17 14:51:00,
2013-08-17 06:56:00,52.7,49.2,30.02,North,5,0.0,0.0,88,0.00,,,0.00,LWC V2.10 B1813,2013-08-17 14:56:00,
2013-08-17 07:01:00,53.3,49.5,30.02,North,0,0.0,0.0,87,0.00,,,0.00,LWC V2.10 B1813,2013-08-17 15:01:00,
2013-08-17 07:06:00,54.1,50.3,30.02,ESE,107,2.0,3.0,87,0.00,,,0.00,LWC V2.10 B1813,2013-08-17 15:06:00,
2013-08-17 07:11:00,54.2,49.5,30.03,SE,124,1.0,2.0,84,0.00,,,0.00,LWC V2.10 B1813,2013-08-17 15:11:00,
2013-08-17 07:16:00,53.9,49.5,30.02,SE,125,0.0,0.0,85,0.00,,,0.00,LWC V2.10 B1813,2013-08-17 15:16:00,
2013-08-17 07:21:00,54.0,49.6,30.03,SE,127,0.0,0.0,85,0.00,,,0.00,LWC V2.10 B1813,2013-08-17 15:21:00,
2013-08-17 07:26:00,54.7,50.6,30.03,SE,126,0.0,0.0,86,0.00,,,0.00,LWC V2.10 B1813,2013-08-17 15:26:00,
2013-08-17 07:31:00,55.5,50.4,30.03,SE,126,0.0,1.0,83,0.00,,,0.00,LWC V2.10 B1813,2013-08-17 15:31:00,
2013-08-17 07:36:00,55.7,50.6,30.03,SE,125,0.0,0.0,83,0.00,,,0.00,LWC V2.10 B1813,2013-08-17 15:36:00,
2013-08-17 07:41:00,55.4,50.0,30.03,SE,126,0.0,0.0,82,0.00,,,0.00,LWC V2.10 B1813,2013-08-17 15:41:00,
2013-08-17 07:46:00,54.8,49.7,30.03,SE,126,0.0,0.0,83,0.00,,,0.00,LWC V2.10 B1813,2013-08-17 15:46:00,
2013-08-17 07:51:00,54.3,49.9,30.03,SE,125,0.0,0.0,85,0.00,,,0.00,LWC V2.10 B1813,2013-08-17 15:51:00,
2013-08-17 07:56:00,54.2,49.8,30.03,SE,126,0.0,0.0,85,0.00,,,0.00,LWC V2.10 B1813,2013-08-17 15:56:00,
2013-08-17 08:01:00,54.3,50.5,30.03,SE,126,0.0,0.0,87,0.00,,,0.00,LWC V2.10 B1813,2013-08-17 16:01:00,
2013-08-17 08:06:00,54.7,50.9,30.03,SE,125,0.0,0.0,87,0.00,,,0.00,LWC V2.10 B1813,2013-08-17 16:06:00,
2013-08-17 08:11:00,55.3,51.2,30.02,SE,126,0.0,0.0,86,0.00,,,0.00,LWC V2.10 B1813,2013-08-17 16:11:00,
2013-08-17 08:16:00,55.5,51.1,30.02,SE,125,0.0,0.0,85,0.00,,,0.00,LWC V2.10 B1813,2013-08-17 16:16:00,
2013-08-17 08:21:00,55.7,51.3,30.02,SE,126,0.0,1.0,85,0.00,,,0.00,LWC V2.10 B1813,2013-08-17 16:21:00,
2013-08-17 08:26:00,55.7,51.3,30.02,SE,125,0.0,0.0,85,0.00,,,0.00,LWC V2.10 B1813,2013-08-17 16:26:00,
2013-08-17 08:31:00,55.9,51.5,30.03,SE,125,0.0,1.0,85,0.00,,,0.00,LWC V2.10 B1813,2013-08-17 16:31:00,
2013-08-17 08:37:00,56.2,51.4,30.02,SE,126,0.0,1.0,84,0.00,,,0.00,LWC V2.10 B1813,2013-08-17 16:37:00,
2013-08-17 08:41:00,56.7,51.6,30.02,SE,126,2.0,4.0,83,0.00,,,0.00,LWC V2.10 B1813,2013-08-17 16:41:00,
2013-08-17 08:47:00,56.5,51.4,30.02,SE,126,1.0,1.0,83,0.00,,,0.00,LWC V2.10 B1813,2013-08-17 16:47:00,
2013-08-17 08:52:00,56.6,51.5,30.02,SE,126,0.0,1.0,83,0.00,,,0.00,LWC V2.10 B1813,2013-08-17 16:52:00,
2013-08-17 08:57:00,56.8,52.0,30.02,SE,126,0.0,1.0,84,0.00,,,0.00,LWC V2.10 B1813,2013-08-17 16:57:00,
2013-08-17 09:02:00,57.2,51.8,30.02,SE,126,0.0,1.0,82,0.00,,,0.00,LWC V2.10 B1813,2013-08-17 17:02:00,
2013-08-17 09:07:00,57.9,52.4,30.02,SE,125,0.0,1.0,82,0.00,,,0.00,LWC V2.10 B1813,2013-08-17 17:07:00,
2013-08-17 09:12:00,58.6,52.8,30.02,SE,126,0.0,0.0,81,0.00,,,0.00,LWC V2.10 B1813,2013-08-17 17:12:00,
2013-08-17 09:17:00,59.0,52.5,30.02,SE,126,0.0,2.0,79,0.00,,,0.00,LWC V2.10 B1813,2013-08-17 17:17:00,
2013-08-17 09:22:00,59.0,53.2,30.02,SE,125,0.0,2.0,81,0.00,,,0.00,LWC V2.10 B1813,2013-08-17 17:22:00,
2013-08-17 09:27:00,59.6,53.1,30.02,SE,126,0.0,1.0,79,0.00,,,0.00,LWC V2.10 B1813,2013-08-17 17:27:00,
2013-08-17 09:32:00,60.4,54.2,30.02,SE,125,0.0,0.0,80,0.00,,,0.00,LWC V2.10 B1813,2013-08-17 17:32:00,
2013-08-17 09:37:00,60.8,53.9,30.02,SE,125,0.0,0.0,78,0.00,,,0.00,LWC V2.10 B1813,2013-08-17 17:37:00,
2013-08-17 09:42:00,60.6,53.3,30.02,SE,126,3.0,3.0,77,0.00,,,0.00,LWC V2.10 B1813,2013-08-17 17:42:00,
2013-08-17 09:47:00,59.7,52.8,30.02,SE,128,2.0,3.0,78,0.00,,,0.00,LWC V2.10 B1813,2013-08-17 17:47:00,
2013-08-17 09:52:00,59.0,52.8,30.02,SE,128,0.0,0.0,80,0.00,,,0.00,LWC V2.10 B1813,2013-08-17 17:52:00,
2013-08-17 09:57:00,58.8,53.0,30.02,SE,128,0.0,1.0,81,0.00,,,0.00,LWC V2.10 B1813,2013-08-17 17:57:00,
2013-08-17 10:02:00,58.9,53.1,30.02,SE,128,0.0,1.0,81,0.00,,,0.00,LWC V2.10 B1813,2013-08-17 18:02:00,
2013-08-17 10:07:00,58.8,53.0,30.01,SE,128,1.0,2.0,81,0.00,,,0.00,LWC V2.10 B1813,2013-08-17 18:07:00,
2013-08-17 10:12:00,59.1,52.9,30.02,SE,128,0.0,1.0,80,0.00,,,0.00,LWC V2.10 B1813,2013-08-17 18:12:00,
2013-08-17 10:17:00,59.7,53.2,30.01,SE,128,0.0,0.0,79,0.00,,,0.00,LWC V2.10 B1813,2013-08-17 18:17:00,
2013-08-17 10:22:00,60.3,54.1,30.01,SE,128,0.0,0.0,80,0.00,,,0.00,LWC V2.10 B1813,2013-08-17 18:22:00,
2013-08-17 10:27:00,60.9,54.7,30.01,SE,128,0.0,2.0,80,0.00,,,0.00,LWC V2.10 B1813,2013-08-17 18:27:00,
2013-08-17 10:32:00,61.3,55.1,30.01,SE,128,0.0,0.0,80,0.00,,,0.00,LWC V2.10 B1813,2013-08-17 18:32:00,
2013-08-17 10:37:00,61.6,55.0,30.01,SE,129,0.0,1.0,79,0.00,,,0.00,LWC V2.10 B1813,2013-08-17 18:37:00,
2013-08-17 10:42:00,61.8,54.9,30.01,SE,128,0.0,2.0,78,0.00,,,0.00,LWC V2.10 B1813,2013-08-17 18:42:00,
2013-08-17 10:47:00,61.9,55.0,30.01,SE,128,0.0,1.0,78,0.00,,,0.00,LWC V2.10 B1813,2013-08-17 18:47:00,
2013-08-17 10:52:00,62.1,54.8,30.01,SE,128,1.0,2.0,77,0.00,,,0.00,LWC V2.10 B1813,2013-08-17 18:52:00,
2013-08-17 10:57:00,62.3,54.6,30.01,SE,130,0.0,1.0,76,0.00,,,0.00,LWC V2.10 B1813,2013-08-17 18:57:00,
2013-08-17 11:02:00,62.8,55.1,30.01,SE,129,1.0,1.0,76,0.00,,,0.00,LWC V2.10 B1813,2013-08-17 19:02:00,
2013-08-17 11:07:00,63.3,55.6,30.00,SE,132,0.0,1.0,76,0.00,,,0.00,LWC V2.10 B1813,2013-08-17 19:07:00,
2013-08-17 11:12:00,64.0,55.9,30.01,SSE,163,0.0,1.0,75,0.00,,,0.00,LWC V2.10 B1813,2013-08-17 19:12:00,
2013-08-17 11:17:00,64.5,56.0,30.00,SSE,164,0.0,1.0,74,0.00,,,0.00,LWC V2.10 B1813,2013-08-17 19:17:00,
2013-08-17 11:22:00,64.9,55.3,30.00,South,179,0.0,1.0,71,0.00,,,0.00,LWC V2.10 B1813,2013-08-17 19:22:00,
2013-08-17 11:27:00,65.1,55.5,30.00,SSW,200,2.0,3.0,71,0.00,,,0.00,LWC V2.10 B1813,2013-08-17 19:27:00,
2013-08-17 11:32:00,65.3,54.9,30.00,SSE,161,0.0,0.0,69,0.00,,,0.00,LWC V2.10 B1813,2013-08-17 19:32:00,
2013-08-17 11:37:00,65.3,54.1,30.00,SW,223,0.0,2.0,67,0.00,,,0.00,LWC V2.10 B1813,2013-08-17 19:37:00,
2013-08-17 11:42:00,65.4,55.0,30.00,SW,224,0.0,0.0,69,0.00,,,0.00,LWC V2.10 B1813,2013-08-17 19:42:00,
2013-08-17 11:47:00,65.2,54.8,30.00,South,185,0.0,1.0,69,0.00,,,0.00,LWC V2.10 B1813,2013-08-17 19:47:00,
2013-08-17 11:52:00,65.1,53.9,30.00,SSW,202,0.0,2.0,67,0.00,,,0.00,LWC V2.10 B1813,2013-08-17 19:52:00,
2013-08-17 11:57:00,65.1,53.9,30.00,SW,215,3.0,7.0,67,0.00,,,0.00,LWC V2.10 B1813,2013-08-17 19:57:00,
2013-08-17 12:02:00,65.0,54.6,30.00,SSW,210,0.0,0.0,69,0.00,,,0.00,LWC V2.10 B1813,2013-08-17 20:02:00,
2013-08-17 12:07:00,64.9,53.7,30.00,SSW,209,1.0,3.0,67,0.00,,,0.00,LWC V2.10 B1813,2013-08-17 20:07:00,
2013-08-17 12:12:00,64.9,54.1,30.00,SSW,202,0.0,1.0,68,0.00,,,0.00,LWC V2.10 B1813,2013-08-17 20:12:00,
2013-08-17 12:17:00,64.9,54.5,30.00,SW,217,0.0,3.0,69,0.00,,,0.00,LWC V2.10 B1813,2013-08-17 20:17:00,
2013-08-17 12:22:00,64.7,53.5,30.00,SW,222,0.0,3.0,67,0.00,,,0.00,LWC V2.10 B1813,2013-08-17 20:22:00,
2013-08-17 12:27:00,64.6,54.2,30.00,SW,222,0.0,3.0,69,0.00,,,0.00,LWC V2.10 B1813,2013-08-17 20:27:00,
2013-08-17 12:32:00,64.6,55.0,30.00,SW,229,1.0,3.0,71,0.00,,,0.00,LWC V2.10 B1813,2013-08-17 20:32:00,
2013-08-17 12:37:00,64.5,54.5,30.00,SW,230,0.0,3.0,70,0.00,,,0.00,LWC V2.10 B1813,2013-08-17 20:37:00,
2013-08-17 12:42:00,64.5,54.5,29.99,WSW,240,0.0,1.0,70,0.00,,,0.00,LWC V2.10 B1813,2013-08-17 20:42:00,
2013-08-17 12:47:00,64.6,55.0,29.99,WSW,244,2.0,4.0,71,0.00,,,0.00,LWC V2.10 B1813,2013-08-17 20:47:00,
2013-08-17 12:52:00,64.7,53.9,29.99,WSW,244,0.0,0.0,68,0.00,,,0.00,LWC V2.10 B1813,2013-08-17 20:52:00,
2013-08-17 12:57:00,64.8,54.4,29.99,West,260,0.0,4.0,69,0.00,,,0.00,LWC V2.10 B1813,2013-08-17 20:57:00,
2013-08-17 13:02:00,64.8,53.6,29.99,North,0,1.0,5.0,67,0.00,,,0.00,LWC V2.10 B1813,2013-08-17 21:02:00,
2013-08-17 13:07:00,64.9,53.3,29.99,WSW,242,0.0,3.0,66,0.00,,,0.00,LWC V2.10 B1813,2013-08-17 21:07:00,
2013-08-17 13:12:00,65.0,53.4,29.99,WSW,244,0.0,0.0,66,0.00,,,0.00,LWC V2.10 B1813,2013-08-17 21:12:00,
2013-08-17 13:17:00,65.1,53.9,29.99,WSW,252,0.0,3.0,67,0.00,,,0.00,LWC V2.10 B1813,2013-08-17 21:17:00,
2013-08-17 13:22:00,65.1,54.3,29.99,WSW,254,1.0,3.0,68,0.00,,,0.00,LWC V2.10 B1813,2013-08-17 21:22:00,
2013-08-17 13:27:00,65.2,54.8,29.98,North,0,1.0,3.0,69,0.00,,,0.00,LWC V2.10 B1813,2013-08-17 21:27:00,
2013-08-17 13:32:00,65.3,54.5,29.98,West,263,0.0,1.0,68,0.00,,,0.00,LWC V2.10 B1813,2013-08-17 21:32:00,
2013-08-17 13:37:00,65.4,53.7,29.98,West,263,0.0,0.0,66,0.00,,,0.00,LWC V2.10 B1813,2013-08-17 21:37:00,
2013-08-17 13:42:00,65.6,53.9,29.98,West,267,0.0,1.0,66,0.00,,,0.00,LWC V2.10 B1813,2013-08-17 21:42:00,
2013-08-17 13:47:00,65.8,54.1,29.98,North,0,1.0,2.0,66,0.00,,,0.00,LWC V2.10 B1813,2013-08-17 21:47:00,
2013-08-17 13:52:00,66.0,54.3,29.98,WNW,288,1.0,2.0,66,0.00,,,0.00,LWC V2.10 B1813,2013-08-17 21:52:00,
2013-08-17 13:57:00,66.2,55.3,29.98,West,277,0.0,3.0,68,0.00,,,0.00,LWC V2.10 B1813,2013-08-17 21:57:00,
2013-08-17 14:02:00,66.5,54.8,29.98,West,274,1.0,5.0,66,0.00,,,0.00,LWC V2.10 B1813,2013-08-17 22:02:00,
2013-08-17 14:07:00,66.8,54.2,29.97,WNW,287,0.0,2.0,64,0.00,,,0.00,LWC V2.10 B1813,2013-08-17 22:07:00,
2013-08-17 14:12:00,67.2,55.4,29.97,North,0,0.0,3.0,66,0.00,,,0.00,LWC V2.10 B1813,2013-08-17 22:12:00,
2013-08-17 14:17:00,67.6,53.7,29.97,NW,313,0.0,5.0,61,0.00,,,0.00,LWC V2.10 B1813,2013-08-17 22:17:00,
2013-08-17 14:22:00,67.7,51.4,29.97,NNW,345,0.0,2.0,56,0.00,,,0.00,LWC V2.10 B1813,2013-08-17 22:22:00,
2013-08-17 14:27:00,68.0,51.7,29.97,North,0,1.0,6.0,56,0.00,,,0.00,LWC V2.10 B1813,2013-08-17 22:27:00,
2013-08-17 14:32:00,68.2,50.9,29.97,NW,313,3.0,4.0,54,0.00,,,0.00,LWC V2.10 B1813,2013-08-17 22:32:00,
2013-08-17 14:37:00,68.3,52.0,29.97,NNW,343,2.0,5.0,56,0.00,,,0.00,LWC V2.10 B1813,2013-08-17 22:37:00,
2013-08-17 14:42:00,68.1,50.8,29.97,NW,321,1.0,5.0,54,0.00,,,0.00,LWC V2.10 B1813,2013-08-17 22:42:00,
2013-08-17 14:47:00,68.0,51.2,29.97,North,0,2.0,6.0,55,0.00,,,0.00,LWC V2.10 B1813,2013-08-17 22:47:00,
2013-08-17 14:52:00,68.1,51.3,29.97,NNE,33,0.0,7.0,55,0.00,,,0.00,LWC V2.10 B1813,2013-08-17 22:52:00,
2013-08-17 14:57:00,68.3,52.0,29.96,NNW,342,0.0,3.0,56,0.00,,,0.00,LWC V2.10 B1813,2013-08-17 22:57:00,
2013-08-17 15:02:00,68.3,52.9,29.96,WNW,282,3.0,8.0,58,0.00,,,0.00,LWC V2.10 B1813,2013-08-17 23:02:00,
2013-08-17 15:07:00,68.4,53.5,29.96,NW,315,1.0,8.0,59,0.00,,,0.00,LWC V2.10 B1813,2013-08-17 23:07:00,
2013-08-17 15:12:00,68.4,52.6,29.96,NW,326,3.0,6.0,57,0.00,,,0.00,LWC V2.10 B1813,2013-08-17 23:12:00,
2013-08-17 15:17:00,68.5,53.1,29.96,WNW,300,0.0,6.0,58,0.00,,,0.00,LWC V2.10 B1813,2013-08-17 23:17:00,
2013-08-17 15:22:00,68.6,53.2,29.96,WNW,301,4.0,10.0,58,0.00,,,0.00,LWC V2.10 B1813,2013-08-17 23:22:00,
2013-08-17 15:27:00,68.5,52.7,29.96,NW,306,5.0,7.0,57,0.00,,,0.00,LWC V2.10 B1813,2013-08-17 23:27:00,
2013-08-17 15:32:00,68.7,52.8,29.96,NNW,346,6.0,9.0,57,0.00,,,0.00,LWC V2.10 B1813,2013-08-17 23:32:00,
2013-08-17 15:37:00,68.9,52.1,29.95,North,0,6.0,8.0,55,0.00,,,0.00,LWC V2.10 B1813,2013-08-17 23:37:00,
2013-08-17 15:42:00,68.9,52.5,29.95,WSW,253,4.0,9.0,56,0.00,,,0.00,LWC V2.10 B1813,2013-08-17 23:42:00,
2013-08-17 15:47:00,69.0,52.6,29.95,WSW,250,7.0,8.0,56,0.00,,,0.00,LWC V2.10 B1813,2013-08-17 23:47:00,
2013-08-17 15:52:00,69.2,53.8,29.95,North,0,1.0,5.0,58,0.00,,,0.00,LWC V2.10 B1813,2013-08-17 23:52:00,
2013-08-17 15:57:00,69.2,52.8,29.95,NW,307,4.0,7.0,56,0.00,,,0.00,LWC V2.10 B1813,2013-08-17 23:57:00,
2013-08-17 16:02:00,69.2,53.8,29.95,WNW,294,5.0,9.0,58,0.00,,,0.00,LWC V2.10 B1813,2013-08-18 00:02:00,
2013-08-17 16:07:00,69.2,51.8,29.95,North,0,2.0,7.0,54,0.00,,,0.00,LWC V2.10 B1813,2013-08-18 00:07:00,
2013-08-17 16:12:00,69.2,52.8,29.94,WNW,299,2.0,12.0,56,0.00,,,0.00,LWC V2.10 B1813,2013-08-18 00:12:00,
2013-08-17 16:17:00,69.1,52.2,29.94,West,265,3.0,7.0,55,0.00,,,0.00,LWC V2.10 B1813,2013-08-18 00:17:00,
2013-08-17 16:22:00,68.7,51.9,29.94,North,0,0.0,6.0,55,0.00,,,0.00,LWC V2.10 B1813,2013-08-18 00:22:00,
2013-08-17 16:27:00,68.4,52.6,29.94,NW,317,5.0,9.0,57,0.00,,,0.00,LWC V2.10 B1813,2013-08-18 00:27:00,
2013-08-17 16:32:00,68.1,52.8,29.94,West,278,2.0,4.0,58,0.00,,,0.00,LWC V2.10 B1813,2013-08-18 00:32:00,
2013-08-17 16:37:00,67.9,52.1,29.94,NW,309,4.0,7.0,57,0.00,,,0.00,LWC V2.10 B1813,2013-08-18 00:37:00,
2013-08-17 16:42:00,67.8,52.0,29.94,WNW,293,5.0,11.0,57,0.00,,,0.00,LWC V2.10 B1813,2013-08-18 00:42:00,
2013-08-17 16:47:00,67.9,53.9,29.94,North,0,0.0,7.0,61,0.00,,,0.00,LWC V2.10 B1813,2013-08-18 00:47:00,
2013-08-17 16:52:00,68.0,52.2,29.94,WNW,296,9.0,9.0,57,0.00,,,0.00,LWC V2.10 B1813,2013-08-18 00:52:00,
2013-08-17 16:57:00,68.0,52.2,29.93,West,277,1.0,7.0,57,0.00,,,0.00,LWC V2.10 B1813,2013-08-18 00:57:00,
2013-08-17 17:02:00,68.0,52.2,29.93,North,0,4.0,9.0,57,0.00,,,0.00,LWC V2.10 B1813,2013-08-18 01:02:00,
2013-08-17 17:07:00,67.9,52.6,29.93,WNW,302,0.0,7.0,58,0.00,,,0.00,LWC V2.10 B1813,2013-08-18 01:07:00,
2013-08-17 17:12:00,67.6,52.8,29.93,NW,318,1.0,7.0,59,0.00,,,0.00,LWC V2.10 B1813,2013-08-18 01:12:00,
2013-08-17 17:17:00,67.4,51.6,29.93,North,0,0.0,3.0,57,0.00,,,0.00,LWC V2.10 B1813,2013-08-18 01:17:00,
2013-08-17 17:22:00,67.3,52.5,29.93,NW,309,2.0,10.0,59,0.00,,,0.00,LWC V2.10 B1813,2013-08-18 01:22:00,
2013-08-17 17:27:00,67.4,53.0,29.93,WNW,288,1.0,8.0,60,0.00,,,0.00,LWC V2.10 B1813,2013-08-18 01:27:00,
2013-08-17 17:32:00,67.6,52.8,29.93,West,272,0.0,3.0,59,0.00,,,0.00,LWC V2.10 B1813,2013-08-18 01:32:00,
2013-08-17 17:37:00,67.7,52.8,29.92,North,0,4.0,7.0,59,0.00,,,0.00,LWC V2.10 B1813,2013-08-18 01:37:00,
2013-08-17 17:42:00,68.0,53.1,29.93,North,0,0.0,10.0,59,0.00,,,0.00,LWC V2.10 B1813,2013-08-18 01:42:00,
2013-08-17 17:47:00,68.3,52.9,29.92,NNW,333,4.0,9.0,58,0.00,,,0.00,LWC V2.10 B1813,2013-08-18 01:47:00,
2013-08-17 17:52:00,68.4,52.6,29.92,WSW,237,6.0,6.0,57,0.00,,,0.00,LWC V2.10 B1813,2013-08-18 01:52:00,
2013-08-17 17:57:00,68.3,53.4,29.92,WNW,294,8.0,14.0,59,0.00,,,0.00,LWC V2.10 B1813,2013-08-18 01:57:00,
2013-08-17 18:02:00,67.9,53.0,29.92,West,270,0.0,12.0,59,0.00,,,0.00,LWC V2.10 B1813,2013-08-18 02:02:00,
2013-08-17 18:07:00,67.6,53.2,29.92,NW,306,4.0,10.0,60,0.00,,,0.00,LWC V2.10 B1813,2013-08-18 02:07:00,
2013-08-17 18:12:00,67.2,53.3,29.92,NW,307,3.0,10.0,61,0.00,,,0.00,LWC V2.10 B1813,2013-08-18 02:12:00,
2013-08-17 18:17:00,67.0,53.1,29.92,WNW,282,5.0,9.0,61,0.00,,,0.00,LWC V2.10 B1813,2013-08-18 02:17:00,
2013-08-17 18:22:00,66.7,52.8,29.92,WSW,257,3.0,8.0,61,0.00,,,0.00,LWC V2.10 B1813,2013-08-18 02:22:00,
2013-08-17 18:27:00,66.4,52.5,29.92,NNW,345,1.0,6.0,61,0.00,,,0.00,LWC V2.10 B1813,2013-08-18 02:27:00,
2013-08-17 18:32:00,66.2,52.3,29.92,NW,322,7.0,13.0,61,0.00,,,0.00,LWC V2.10 B1813,2013-08-18 02:32:00,
2013-08-17 18:37:00,65.9,52.5,29.92,WNW,286,8.0,12.0,62,0.00,,,0.00,LWC V2.10 B1813,2013-08-18 02:37:00,
2013-08-17 18:42:00,65.4,52.5,29.92,WNW,296,2.0,11.0,63,0.00,,,0.00,LWC V2.10 B1813,2013-08-18 02:42:00,
2013-08-17 18:47:00,65.1,52.6,29.92,NW,316,0.0,6.0,64,0.00,,,0.00,LWC V2.10 B1813,2013-08-18 02:47:00,
2013-08-17 18:53:00,64.8,53.6,29.91,West,277,5.0,9.0,67,0.00,,,0.00,LWC V2.10 B1813,2013-08-18 02:53:00,
2013-08-17 18:58:00,64.5,53.7,29.91,WSW,258,5.0,6.0,68,0.00,,,0.00,LWC V2.10 B1813,2013-08-18 02:58:00,
2013-08-17 19:03:00,64.3,53.5,29.91,NW,304,7.0,7.0,68,0.00,,,0.00,LWC V2.10 B1813,2013-08-18 03:03:00,
2013-08-17 19:08:00,64.1,53.3,29.91,NW,309,1.0,14.0,68,0.00,,,0.00,LWC V2.10 B1813,2013-08-18 03:08:00,
2013-08-17 19:13:00,64.0,53.2,29.91,West,275,6.0,11.0,68,0.00,,,0.00,LWC V2.10 B1813,2013-08-18 03:13:00,
2013-08-17 19:18:00,63.8,53.4,29.91,NW,322,8.0,9.0,69,0.00,,,0.00,LWC V2.10 B1813,2013-08-18 03:18:00,
2013-08-17 19:23:00,63.5,53.1,29.91,West,277,3.0,9.0,69,0.00,,,0.00,LWC V2.10 B1813,2013-08-18 03:23:00,
2013-08-17 19:28:00,63.2,52.9,29.91,WNW,285,1.0,13.0,69,0.00,,,0.00,LWC V2.10 B1813,2013-08-18 03:28:00,
2013-08-17 19:33:00,63.0,53.1,29.91,NW,318,5.0,9.0,70,0.00,,,0.00,LWC V2.10 B1813,2013-08-18 03:33:00,
2013-08-17 19:38:00,62.7,53.2,29.91,WNW,291,11.0,13.0,71,0.00,,,0.00,LWC V2.10 B1813,2013-08-18 03:38:00,
2013-08-17 19:43:00,62.6,53.1,29.91,North,0,1.0,10.0,71,0.00,,,0.00,LWC V2.10 B1813,2013-08-18 03:43:00,
2013-08-17 19:48:00,62.5,53.0,29.91,WNW,296,1.0,10.0,71,0.00,,,0.00,LWC V2.10 B1813,2013-08-18 03:48:00,
2013-08-17 19:53:00,62.4,52.9,29.90,NW,304,3.0,11.0,71,0.00,,,0.00,LWC V2.10 B1813,2013-08-18 03:53:00,
2013-08-17 19:58:00,62.4,52.9,29.91,NW,311,2.0,10.0,71,0.00,,,0.00,LWC V2.10 B1813,2013-08-18 03:58:00,
2013-08-17 20:01:00,62.3,52.8,29.91,NW,313,7.0,9.0,71,0.00,,,0.00,LWC V2.10 B1813,2013-08-18 04:01:00,
2013-08-17 20:02:00,62.3,53.2,29.91,North,0,2.0,12.0,72,0.00,,,0.00,LWC V2.10 B1813,2013-08-18 04:02:00,
2013-08-17 20:07:00,62.3,53.2,29.91,NNW,329,4.0,11.0,72,0.00,,,0.00,LWC V2.10 B1813,2013-08-18 04:07:00,
2013-08-17 20:12:00,62.2,53.1,29.91,NW,315,3.0,9.0,72,0.00,,,0.00,LWC V2.10 B1813,2013-08-18 04:12:00,
2013-08-17 20:17:00,62.1,53.0,29.91,NW,306,1.0,9.0,72,0.00,,,0.00,LWC V2.10 B1813,2013-08-18 04:17:00,
2013-08-17 20:22:00,62.0,53.2,29.91,WNW,290,2.0,8.0,73,0.00,,,0.00,LWC V2.10 B1813,2013-08-18 04:22:00,
2013-08-17 20:27:00,62.0,52.9,29.91,North,0,3.0,6.0,72,0.00,,,0.00,LWC V2.10 B1813,2013-08-18 04:27:00,
2013-08-17 20:32:00,61.8,52.7,29.90,WSW,258,5.0,7.0,72,0.00,,,0.00,LWC V2.10 B1813,2013-08-18 04:32:00,
2013-08-17 20:37:00,61.8,53.0,29.90,WNW,300,0.0,5.0,73,0.00,,,0.00,LWC V2.10 B1813,2013-08-18 04:37:00,
2013-08-17 20:42:00,61.6,53.2,29.90,NNW,346,0.0,3.0,74,0.00,,,0.00,LWC V2.10 B1813,2013-08-18 04:42:00,
2013-08-17 20:47:00,61.6,52.9,29.90,NW,313,2.0,9.0,73,0.00,,,0.00,LWC V2.10 B1813,2013-08-18 04:47:00,
2013-08-17 20:52:00,61.5,52.4,29.91,WNW,286,5.0,9.0,72,0.00,,,0.00,LWC V2.10 B1813,2013-08-18 04:52:00,
2013-08-17 20:57:00,61.5,53.5,29.91,NW,318,0.0,5.0,75,0.00,,,0.00,LWC V2.10 B1813,2013-08-18 04:57:00,
2013-08-17 21:02:00,61.4,53.0,29.90,NW,311,0.0,9.0,74,0.00,,,0.00,LWC V2.10 B1813,2013-08-18 05:02:00,
2013-08-17 21:07:00,61.3,52.6,29.91,NW,314,0.0,4.0,73,0.00,,,0.00,LWC V2.10 B1813,2013-08-18 05:07:00,
2013-08-17 21:12:00,61.2,53.2,29.91,North,0,0.0,4.0,75,0.00,,,0.00,LWC V2.10 B1813,2013-08-18 05:12:00,
2013-08-17 21:17:00,61.1,52.7,29.91,NW,309,0.0,1.0,74,0.00,,,0.00,LWC V2.10 B1813,2013-08-18 05:17:00,
2013-08-17 21:22:00,61.1,51.2,29.90,NNW,342,0.0,3.0,70,0.00,,,0.00,LWC V2.10 B1813,2013-08-18 05:22:00,
2013-08-17 21:27:00,61.1,51.2,29.91,NW,316,0.0,4.0,70,0.00,,,0.00,LWC V2.10 B1813,2013-08-18 05:27:00,
2013-08-17 21:32:00,61.2,51.3,29.91,NNW,346,0.0,4.0,70,0.00,,,0.00,LWC V2.10 B1813,2013-08-18 05:32:00,
2013-08-17 21:37:00,61.1,51.2,29.91,NW,315,0.0,1.0,70,0.00,,,0.00,LWC V2.10 B1813,2013-08-18 05:37:00,
2013-08-17 21:42:00,61.0,51.1,29.91,NW,314,0.0,0.0,70,0.00,,,0.00,LWC V2.10 B1813,2013-08-18 05:42:00,
2013-08-17 21:47:00,60.9,51.4,29.91,NNW,344,0.0,1.0,71,0.00,,,0.00,LWC V2.10 B1813,2013-08-18 05:47:00,
2013-08-17 21:52:00,60.7,52.4,29.91,West,274,0.0,5.0,74,0.00,,,0.00,LWC V2.10 B1813,2013-08-18 05:52:00,
2013-08-17 21:57:00,60.4,52.1,29.91,WNW,290,0.0,4.0,74,0.00,,,0.00,LWC V2.10 B1813,2013-08-18 05:57:00,
2013-08-17 22:02:00,60.2,52.6,29.90,West,280,2.0,2.0,76,0.00,,,0.00,LWC V2.10 B1813,2013-08-18 06:02:00,
2013-08-17 22:07:00,60.0,52.4,29.91,WNW,295,3.0,3.0,76,0.00,,,0.00,LWC V2.10 B1813,2013-08-18 06:07:00,
2013-08-17 22:12:00,59.7,52.1,29.91,WNW,283,0.0,3.0,76,0.00,,,0.00,LWC V2.10 B1813,2013-08-18 06:12:00,
2013-08-17 22:17:00,59.5,52.3,29.91,WNW,284,0.0,7.0,77,0.00,,,0.00,LWC V2.10 B1813,2013-08-18 06:17:00,
2013-08-17 22:22:00,59.2,52.0,29.91,NW,322,0.0,4.0,77,0.00,,,0.00,LWC V2.10 B1813,2013-08-18 06:22:00,
2013-08-17 22:27:00,59.0,51.8,29.90,WSW,237,0.0,5.0,77,0.00,,,0.00,LWC V2.10 B1813,2013-08-18 06:27:00,
2013-08-17 22:32:00,59.0,51.8,29.90,WNW,292,0.0,4.0,77,0.00,,,0.00,LWC V2.10 B1813,2013-08-18 06:32:00,
2013-08-17 22:37:00,59.0,52.1,29.90,North,0,1.0,6.0,78,0.00,,,0.00,LWC V2.10 B1813,2013-08-18 06:37:00,
2013-08-17 22:42:00,58.8,52.3,29.90,WNW,291,0.0,3.0,79,0.00,,,0.00,LWC V2.10 B1813,2013-08-18 06:42:00,
2013-08-17 22:47:00,58.6,52.1,29.90,North,0,0.0,3.0,79,0.00,,,0.00,LWC V2.10 B1813,2013-08-18 06:47:00,
2013-08-17 22:52:00,58.4,51.6,29.90,North,10,0.0,4.0,78,0.00,,,0.00,LWC V2.10 B1813,2013-08-18 06:52:00,
2013-08-17 22:57:00,58.4,50.5,29.90,North,5,0.0,11.0,75,0.00,,,0.00,LWC V2.10 B1813,2013-08-18 06:57:00,
2013-08-17 23:02:00,58.6,51.1,29.90,WNW,302,0.0,8.0,76,0.00,,,0.00,LWC V2.10 B1813,2013-08-18 07:02:00,
2013-08-17 23:07:00,58.6,52.1,29.90,NW,320,3.0,4.0,79,0.00,,,0.00,LWC V2.10 B1813,2013-08-18 07:07:00,
2013-08-17 23:12:00,58.3,51.8,29.90,NW,325,1.0,11.0,79,0.00,,,0.00,LWC V2.10 B1813,2013-08-18 07:12:00,
2013-08-17 23:17:00,58.1,51.3,29.90,NNW,333,4.0,4.0,78,0.00,,,0.00,LWC V2.10 B1813,2013-08-18 07:17:00,
2013-08-17 23:22:00,58.0,51.2,29.90,NW,306,0.0,9.0,78,0.00,,,0.00,LWC V2.10 B1813,2013-08-18 07:22:00,
2013-08-17 23:27:00,57.9,51.1,29.90,WNW,296,0.0,5.0,78,0.00,,,0.00,LWC V2.10 B1813,2013-08-18 07:27:00,
2013-08-17 23:32:00,57.8,51.0,29.90,North,0,0.0,2.0,78,0.00,,,0.00,LWC V2.10 B1813,2013-08-18 07:32:00,
2013-08-17 23:37:00,57.7,50.9,29.90,NW,309,5.0,7.0,78,0.00,,,0.00,LWC V2.10 B1813,2013-08-18 07:37:00,
2013-08-17 23:42:00,57.6,50.8,29.90,NW,311,1.0,4.0,78,0.00,,,0.00,LWC V2.10 B1813,2013-08-18 07:42:00,
2013-08-17 23:47:00,57.5,50.7,29.90,NW,306,0.0,4.0,78,0.00,,,0.00,LWC V2.10 B1813,2013-08-18 07:47:00,
2013-08-17 23:52:00,57.4,50.6,29.90,NW,314,2.0,5.0,78,0.00,,,0.00,LWC V2.10 B1813,2013-08-18 07:52:00,
2013-08-17 23:57:00,57.2,50.7,29.90,WNW,298,2.0,7.0,79,0.00,,,0.00,LWC V2.10 B1813,2013-08-18 07:57:00,